createdAt,value
2018-04-23T00:00:44.636Z,0.00
2018-04-23T00:01:44.648Z,0.00
2018-04-23T00:03:37.551Z,0.00
2018-04-23T00:04:37.576Z,0.00
2018-04-23T00:06:30.508Z,0.00
2018-04-23T00:07:30.517Z,0.00
2018-04-23T00:09:23.421Z,0.00
2018-04-23T00:10:23.445Z,0.00
2018-04-23T00:12:16.373Z,0.00
2018-04-23T00:13:16.377Z,0.00
2018-04-23T00:15:09.305Z,0.00
2018-04-23T00:16:09.313Z,0.00
2018-04-23T00:18:02.221Z,0.00
2018-04-23T00:19:02.240Z,0.00
2018-04-23T00:20:55.172Z,0.00
2018-04-23T00:21:55.176Z,0.00
2018-04-23T00:23:48.087Z,0.00
2018-04-23T00:24:48.112Z,0.00
2018-04-23T00:26:41.040Z,0.00
2018-04-23T00:27:41.041Z,0.00
2018-04-23T00:29:33.949Z,0.00
2018-04-23T00:30:33.974Z,0.00
2018-04-23T00:32:26.902Z,0.00
2018-04-23T00:33:26.905Z,0.00
2018-04-23T00:35:19.837Z,0.00
2018-04-23T00:36:19.842Z,0.00
2018-04-23T00:38:12.749Z,0.00
2018-04-23T00:39:12.773Z,0.00
2018-04-23T00:41:05.704Z,0.00
2018-04-23T00:42:05.709Z,0.00
2018-04-23T00:43:58.617Z,0.00
2018-04-23T00:44:58.643Z,0.00
2018-04-23T00:46:51.575Z,0.00
2018-04-23T00:47:51.578Z,0.00
2018-04-23T00:49:44.490Z,0.00
2018-04-23T00:50:44.520Z,0.00
2018-04-23T00:52:37.441Z,0.00
2018-04-23T00:53:37.444Z,0.00
2018-04-23T00:55:30.372Z,0.00
2018-04-23T00:56:30.377Z,0.00
2018-04-23T00:58:23.287Z,0.00
2018-04-23T00:59:23.447Z,0.00
2018-04-23T01:01:16.238Z,0.00
2018-04-23T01:02:16.245Z,0.00
2018-04-23T01:04:09.653Z,0.00
2018-04-23T01:05:09.672Z,0.00
2018-04-23T01:07:02.599Z,0.00
2018-04-23T01:08:02.603Z,0.00
2018-04-23T01:09:55.515Z,0.00
2018-04-23T01:10:55.537Z,0.00
2018-04-23T01:12:48.469Z,0.00
2018-04-23T01:13:48.472Z,0.00
2018-04-23T01:15:41.402Z,0.00
2018-04-23T01:16:41.407Z,0.00
2018-04-23T01:18:34.318Z,0.00
2018-04-23T01:19:34.345Z,0.00
2018-04-23T01:21:27.269Z,0.00
2018-04-23T01:22:27.274Z,0.00
2018-04-23T01:24:20.184Z,0.00
2018-04-23T01:25:20.210Z,0.00
2018-04-23T01:27:13.136Z,0.00
2018-04-23T01:28:13.141Z,0.00
2018-04-23T01:30:06.054Z,0.00
2018-04-23T01:31:06.074Z,0.00
2018-04-23T01:32:59.006Z,0.00
2018-04-23T01:33:59.011Z,0.00
2018-04-23T01:35:51.941Z,0.00
2018-04-23T01:36:51.945Z,0.00
2018-04-23T01:38:44.855Z,0.00
2018-04-23T01:39:44.880Z,0.00
2018-04-23T01:41:37.812Z,0.00
2018-04-23T01:42:37.813Z,0.00
2018-04-23T01:44:30.723Z,0.00
2018-04-23T01:45:30.749Z,0.00
2018-04-23T01:47:23.678Z,0.00
2018-04-23T01:48:23.682Z,0.00
2018-04-23T01:50:16.589Z,0.00
2018-04-23T01:51:16.613Z,0.00
2018-04-23T01:53:09.541Z,0.00
2018-04-23T01:54:09.548Z,0.00
2018-04-23T01:56:02.472Z,0.00
2018-04-23T01:57:02.477Z,0.00
2018-04-23T01:58:55.388Z,0.00
2018-04-23T01:59:55.411Z,0.00
2018-04-23T02:01:48.342Z,0.00
2018-04-23T02:02:48.345Z,0.00
2018-04-23T02:04:41.258Z,0.00
2018-04-23T02:05:41.280Z,0.00
2018-04-23T02:07:34.207Z,0.00
2018-04-23T02:08:34.213Z,0.00
2018-04-23T02:10:27.122Z,0.00
2018-04-23T02:11:27.146Z,0.00
2018-04-23T02:13:20.074Z,0.00
2018-04-23T02:14:20.079Z,0.00
2018-04-23T02:16:13.010Z,0.00
2018-04-23T02:17:13.013Z,0.00
2018-04-23T02:19:05.948Z,0.00
2018-04-23T02:20:05.949Z,0.00
2018-04-23T02:21:58.876Z,0.00
2018-04-23T02:22:58.881Z,0.00
2018-04-23T02:24:51.789Z,0.00
2018-04-23T02:25:51.813Z,0.00
2018-04-23T02:27:44.741Z,0.00
2018-04-23T02:28:44.745Z,0.00
2018-04-23T02:30:37.655Z,0.00
2018-04-23T02:31:37.679Z,0.00
2018-04-23T02:33:30.607Z,0.00
2018-04-23T02:34:30.612Z,0.00
2018-04-23T02:36:23.540Z,0.00
2018-04-23T02:37:23.549Z,0.00
2018-04-23T02:39:16.469Z,0.00
2018-04-23T02:40:16.478Z,0.00
2018-04-23T02:42:09.410Z,0.00
2018-04-23T02:43:09.413Z,0.00
2018-04-23T02:45:02.321Z,0.00
2018-04-23T02:46:02.345Z,0.00
2018-04-23T02:47:55.273Z,0.00
2018-04-23T02:48:55.280Z,0.00
2018-04-23T02:50:48.188Z,0.00
2018-04-23T02:51:48.211Z,0.00
2018-04-23T02:53:41.139Z,0.00
2018-04-23T02:54:41.145Z,0.00
2018-04-23T02:56:34.235Z,0.00
2018-04-23T02:57:34.242Z,0.00
2018-04-23T02:59:27.149Z,0.00
2018-04-23T03:00:27.171Z,0.00
2018-04-23T03:02:20.102Z,0.00
2018-04-23T03:03:20.108Z,0.00
2018-04-23T03:05:13.034Z,0.00
2018-04-23T03:06:13.060Z,0.00
2018-04-23T03:08:05.998Z,0.00
2018-04-23T03:09:06.002Z,0.00
2018-04-23T03:10:58.911Z,0.00
2018-04-23T03:11:58.936Z,0.00
2018-04-23T03:13:52.060Z,0.00
2018-04-23T03:14:52.063Z,0.00
2018-04-23T03:16:45.218Z,0.00
2018-04-23T03:17:45.220Z,0.00
2018-04-23T03:19:38.132Z,0.00
2018-04-23T03:20:38.152Z,0.00
2018-04-23T03:22:31.081Z,0.00
2018-04-23T03:23:31.085Z,0.00
2018-04-23T03:25:24.003Z,0.00
2018-04-23T03:26:24.029Z,0.00
2018-04-23T03:28:16.955Z,0.00
2018-04-23T03:29:16.961Z,0.00
2018-04-23T03:31:09.868Z,0.00
2018-04-23T03:32:09.893Z,0.00
2018-04-23T03:34:02.822Z,0.00
2018-04-23T03:35:02.822Z,0.00
2018-04-23T03:36:55.753Z,0.00
2018-04-23T03:37:55.755Z,0.00
2018-04-23T03:39:48.665Z,0.00
2018-04-23T03:40:48.687Z,0.00
2018-04-23T03:42:41.617Z,0.00
2018-04-23T03:43:41.623Z,0.00
2018-04-23T03:45:34.527Z,0.00
2018-04-23T03:46:34.550Z,0.00
2018-04-23T03:48:27.480Z,0.00
2018-04-23T03:49:27.493Z,0.00
2018-04-23T03:51:20.399Z,0.00
2018-04-23T03:52:20.419Z,0.00
2018-04-23T03:54:13.345Z,0.00
2018-04-23T03:55:13.349Z,0.00
2018-04-23T03:57:06.275Z,0.00
2018-04-23T03:58:06.281Z,0.00
2018-04-23T03:59:59.190Z,0.00
2018-04-23T04:00:59.214Z,0.00
2018-04-23T04:02:52.145Z,0.00
2018-04-23T04:03:52.149Z,0.00
2018-04-23T04:05:45.062Z,0.00
2018-04-23T04:06:45.092Z,0.00
2018-04-23T04:08:38.012Z,0.00
2018-04-23T04:09:38.019Z,0.00
2018-04-23T04:11:30.927Z,0.00
2018-04-23T04:12:30.951Z,0.00
2018-04-23T04:14:23.876Z,5.63
2018-04-23T04:15:23.883Z,5.63
2018-04-23T04:17:16.811Z,5.63
2018-04-23T04:18:16.815Z,5.63
2018-04-23T04:20:09.727Z,5.63
2018-04-23T04:21:09.752Z,5.63
2018-04-23T04:23:02.680Z,5.63
2018-04-23T04:24:02.686Z,11.25
2018-04-23T04:25:55.597Z,16.88
2018-04-23T04:26:55.620Z,16.88
2018-04-23T04:28:48.553Z,22.50
2018-04-23T04:29:48.553Z,22.50
2018-04-23T04:31:41.462Z,22.50
2018-04-23T04:32:41.486Z,28.13
2018-04-23T04:34:34.413Z,28.13
2018-04-23T04:35:34.488Z,33.75
2018-04-23T04:37:27.348Z,33.75
2018-04-23T04:38:27.381Z,33.75
2018-04-23T04:40:20.265Z,33.75
2018-04-23T04:41:20.286Z,33.75
2018-04-23T04:43:13.221Z,45.00
2018-04-23T04:44:13.220Z,45.00
2018-04-23T04:46:06.126Z,50.63
2018-04-23T04:47:06.151Z,56.25
2018-04-23T04:48:59.096Z,67.50
2018-04-23T04:49:59.095Z,78.75
2018-04-23T04:51:52.002Z,90.00
2018-04-23T04:52:52.025Z,90.00
2018-04-23T04:54:44.955Z,90.00
2018-04-23T04:55:44.957Z,90.00
2018-04-23T04:57:37.890Z,90.00
2018-04-23T04:58:37.900Z,95.63
2018-04-23T05:00:30.801Z,106.88
2018-04-23T05:01:30.827Z,106.88
2018-04-23T05:03:23.801Z,95.63
2018-04-23T05:04:23.758Z,95.63
2018-04-23T05:06:16.669Z,78.75
2018-04-23T05:07:16.689Z,73.13
2018-04-23T05:09:09.623Z,67.50
2018-04-23T05:10:09.625Z,67.50
2018-04-23T05:12:02.531Z,67.50
2018-04-23T05:13:02.559Z,67.50
2018-04-23T05:14:55.483Z,73.13
2018-04-23T05:15:55.488Z,73.13
2018-04-23T05:17:48.419Z,78.75
2018-04-23T05:18:48.426Z,78.75
2018-04-23T05:20:41.337Z,95.63
2018-04-23T05:21:41.357Z,101.25
2018-04-23T05:23:34.289Z,118.13
2018-04-23T05:24:34.298Z,112.50
2018-04-23T05:26:27.199Z,123.75
2018-04-23T05:27:27.224Z,123.75
2018-04-23T05:29:20.153Z,95.63
2018-04-23T05:30:20.158Z,106.88
2018-04-23T05:32:13.067Z,135.00
2018-04-23T05:33:13.092Z,146.25
2018-04-23T05:35:06.025Z,157.50
2018-04-23T05:36:06.028Z,151.88
2018-04-23T05:37:58.969Z,118.13
2018-04-23T05:38:58.971Z,112.50
2018-04-23T05:40:51.915Z,123.75
2018-04-23T05:41:51.938Z,118.13
2018-04-23T05:43:44.870Z,135.00
2018-04-23T05:44:44.872Z,135.00
2018-04-23T05:46:37.790Z,146.25
2018-04-23T05:47:37.809Z,151.88
2018-04-23T05:49:30.741Z,168.75
2018-04-23T05:50:30.746Z,191.25
2018-04-23T05:52:23.659Z,208.13
2018-04-23T05:53:23.687Z,225.00
2018-04-23T05:55:16.613Z,258.75
2018-04-23T05:56:16.625Z,281.25
2018-04-23T05:58:09.576Z,348.75
2018-04-23T05:59:09.586Z,348.75
2018-04-23T06:01:02.499Z,315.00
2018-04-23T06:02:02.522Z,309.38
2018-04-23T06:03:55.450Z,348.75
2018-04-23T06:04:55.458Z,427.50
2018-04-23T06:06:48.371Z,495.00
2018-04-23T06:07:48.400Z,506.25
2018-04-23T06:09:41.329Z,472.50
2018-04-23T06:10:41.338Z,483.75
2018-04-23T06:12:34.247Z,376.88
2018-04-23T06:13:34.278Z,348.75
2018-04-23T06:15:27.204Z,365.63
2018-04-23T06:16:27.210Z,416.25
2018-04-23T06:18:20.146Z,421.88
2018-04-23T06:19:20.156Z,433.13
2018-04-23T06:21:13.071Z,376.88
2018-04-23T06:22:13.097Z,286.88
2018-04-23T06:24:06.031Z,365.63
2018-04-23T06:25:06.040Z,444.38
2018-04-23T06:26:58.955Z,371.25
2018-04-23T06:27:58.981Z,393.75
2018-04-23T06:29:51.918Z,489.38
2018-04-23T06:30:51.925Z,360.00
2018-04-23T06:32:44.839Z,393.75
2018-04-23T06:33:44.885Z,714.38
2018-04-23T06:35:37.800Z,888.75
2018-04-23T06:36:37.810Z,500.63
2018-04-23T06:38:30.740Z,1091.25
2018-04-23T06:39:30.751Z,1091.25
2018-04-23T06:41:23.662Z,990.00
2018-04-23T06:42:23.693Z,1108.13
2018-04-23T06:44:16.622Z,1181.25
2018-04-23T06:45:16.634Z,978.75
2018-04-23T06:47:09.548Z,967.50
2018-04-23T06:48:09.578Z,883.13
2018-04-23T06:50:02.512Z,630.00
2018-04-23T06:51:02.523Z,826.88
2018-04-23T06:52:55.440Z,1119.38
2018-04-23T06:53:55.467Z,658.13
2018-04-23T06:55:48.414Z,1170.00
2018-04-23T06:56:48.416Z,1096.88
2018-04-23T06:58:41.354Z,838.13
2018-04-23T06:59:41.365Z,725.63
2018-04-23T07:01:34.289Z,624.38
2018-04-23T07:02:34.315Z,523.13
2018-04-23T07:04:27.253Z,371.25
2018-04-23T07:05:27.265Z,331.88
2018-04-23T07:07:20.177Z,354.38
2018-04-23T07:08:20.209Z,388.13
2018-04-23T07:10:13.144Z,405.00
2018-04-23T07:11:13.153Z,371.25
2018-04-23T07:13:06.068Z,360.00
2018-04-23T07:14:06.099Z,348.75
2018-04-23T07:15:59.033Z,376.88
2018-04-23T07:16:59.042Z,371.25
2018-04-23T07:18:51.973Z,348.75
2018-04-23T07:19:51.986Z,326.25
2018-04-23T07:21:44.898Z,382.50
2018-04-23T07:22:44.923Z,405.00
2018-04-23T07:24:37.861Z,405.00
2018-04-23T07:25:37.869Z,410.63
2018-04-23T07:27:30.784Z,410.63
2018-04-23T07:28:30.813Z,399.38
2018-04-23T07:30:23.756Z,376.88
2018-04-23T07:31:23.763Z,365.63
2018-04-23T07:33:16.688Z,371.25
2018-04-23T07:34:16.707Z,371.25
2018-04-23T07:36:09.646Z,309.38
2018-04-23T07:37:09.653Z,337.50
2018-04-23T07:39:02.588Z,399.38
2018-04-23T07:40:02.599Z,433.13
2018-04-23T07:41:55.510Z,472.50
2018-04-23T07:42:55.539Z,489.38
2018-04-23T07:44:48.471Z,450.00
2018-04-23T07:45:48.480Z,444.38
2018-04-23T07:47:41.396Z,399.38
2018-04-23T07:48:41.423Z,410.63
2018-04-23T07:50:34.357Z,450.00
2018-04-23T07:51:34.369Z,466.88
2018-04-23T07:53:27.282Z,455.63
2018-04-23T07:54:27.308Z,478.13
2018-04-23T07:56:20.243Z,517.50
2018-04-23T07:57:20.254Z,450.00
2018-04-23T07:59:13.222Z,399.38
2018-04-23T08:00:13.229Z,393.75
2018-04-23T08:02:06.147Z,478.13
2018-04-23T08:03:06.175Z,483.75
2018-04-23T08:04:59.108Z,433.13
2018-04-23T08:05:59.118Z,455.63
2018-04-23T08:07:52.041Z,466.88
2018-04-23T08:08:52.065Z,489.38
2018-04-23T08:10:45.010Z,568.13
2018-04-23T08:11:45.023Z,596.25
2018-04-23T08:13:37.938Z,534.38
2018-04-23T08:14:37.965Z,523.13
2018-04-23T08:16:30.904Z,472.50
2018-04-23T08:17:30.914Z,511.88
2018-04-23T08:19:23.860Z,472.50
2018-04-23T08:20:23.867Z,528.75
2018-04-23T08:22:16.786Z,630.00
2018-04-23T08:23:16.814Z,613.13
2018-04-23T08:25:09.748Z,596.25
2018-04-23T08:26:09.760Z,540.00
2018-04-23T08:28:03.169Z,511.88
2018-04-23T08:29:03.196Z,540.00
2018-04-23T08:30:56.134Z,455.63
2018-04-23T08:31:56.144Z,511.88
2018-04-23T08:33:49.064Z,472.50
2018-04-23T08:34:49.089Z,388.13
2018-04-23T08:36:42.522Z,427.50
2018-04-23T08:37:42.532Z,472.50
2018-04-23T08:39:35.468Z,523.13
2018-04-23T08:40:35.478Z,556.88
2018-04-23T08:42:28.407Z,528.75
2018-04-23T08:43:28.431Z,562.50
2018-04-23T08:45:21.383Z,489.38
2018-04-23T08:46:21.385Z,433.13
2018-04-23T08:48:14.308Z,523.13
2018-04-23T08:49:14.341Z,433.13
2018-04-23T08:51:07.285Z,416.25
2018-04-23T08:52:07.290Z,601.88
2018-04-23T08:54:00.702Z,438.75
2018-04-23T08:55:00.730Z,382.50
2018-04-23T08:56:53.667Z,360.00
2018-04-23T08:57:53.685Z,483.75
2018-04-23T08:59:46.611Z,450.00
2018-04-23T09:00:46.622Z,444.38
2018-04-23T09:02:39.538Z,303.75
2018-04-23T09:03:39.566Z,371.25
2018-04-23T09:05:32.504Z,444.38
2018-04-23T09:06:32.511Z,326.25
2018-04-23T09:08:25.433Z,270.00
2018-04-23T09:09:25.507Z,275.63
2018-04-23T09:11:18.394Z,258.75
2018-04-23T09:12:18.401Z,253.13
2018-04-23T09:14:11.322Z,241.88
2018-04-23T09:15:11.348Z,253.13
2018-04-23T09:17:04.786Z,247.50
2018-04-23T09:18:04.792Z,286.88
2018-04-23T09:19:57.724Z,270.00
2018-04-23T09:20:57.731Z,264.38
2018-04-23T09:22:50.646Z,270.00
2018-04-23T09:23:50.675Z,264.38
2018-04-23T09:25:43.610Z,320.63
2018-04-23T09:26:43.618Z,371.25
2018-04-23T09:28:36.533Z,455.63
2018-04-23T09:29:36.561Z,393.75
2018-04-23T09:31:29.496Z,421.88
2018-04-23T09:32:29.504Z,511.88
2018-04-23T09:34:22.422Z,596.25
2018-04-23T09:35:22.449Z,556.88
2018-04-23T09:37:15.384Z,607.50
2018-04-23T09:38:15.394Z,590.63
2018-04-23T09:40:08.352Z,635.63
2018-04-23T09:41:08.345Z,658.13
2018-04-23T09:43:01.259Z,478.13
2018-04-23T09:44:01.286Z,472.50
2018-04-23T09:45:54.232Z,540.00
2018-04-23T09:46:54.255Z,495.00
2018-04-23T09:48:47.157Z,433.13
2018-04-23T09:49:47.186Z,455.63
2018-04-23T09:51:40.134Z,573.75
2018-04-23T09:52:40.145Z,573.75
2018-04-23T09:54:33.065Z,624.38
2018-04-23T09:55:33.093Z,562.50
2018-04-23T09:57:26.048Z,517.50
2018-04-23T09:58:26.054Z,483.75
2018-04-23T10:00:19.017Z,405.00
2018-04-23T10:01:19.007Z,466.88
2018-04-23T10:03:11.934Z,281.25
2018-04-23T10:04:11.959Z,281.25
2018-04-23T10:06:04.938Z,247.50
2018-04-23T10:07:04.914Z,253.13
2018-04-23T10:08:57.836Z,270.00
2018-04-23T10:09:57.867Z,309.38
2018-04-23T10:11:51.303Z,360.00
2018-04-23T10:12:51.317Z,393.75
2018-04-23T10:14:44.229Z,421.88
2018-04-23T10:15:44.257Z,489.38
2018-04-23T10:17:37.197Z,511.88
2018-04-23T10:18:37.208Z,427.50
2018-04-23T10:20:30.174Z,399.38
2018-04-23T10:21:30.155Z,517.50
2018-04-23T10:23:23.074Z,562.50
2018-04-23T10:24:23.107Z,534.38
2018-04-23T10:26:16.039Z,506.25
2018-04-23T10:27:16.049Z,472.50
2018-04-23T10:29:08.978Z,528.75
2018-04-23T10:30:08.998Z,545.63
2018-04-23T10:32:02.432Z,495.00
2018-04-23T10:33:02.443Z,450.00
2018-04-23T10:34:55.401Z,427.50
2018-04-23T10:35:55.398Z,472.50
2018-04-23T10:37:48.830Z,500.63
2018-04-23T10:38:48.842Z,495.00
2018-04-23T10:40:41.803Z,466.88
2018-04-23T10:41:41.793Z,461.25
2018-04-23T10:43:34.732Z,489.38
2018-04-23T10:44:34.746Z,495.00
2018-04-23T10:46:27.744Z,405.00
2018-04-23T10:47:27.755Z,320.63
2018-04-23T10:49:20.791Z,292.50
2018-04-23T10:50:20.816Z,270.00
2018-04-23T10:52:13.857Z,292.50
2018-04-23T10:53:13.868Z,320.63
2018-04-23T10:55:06.897Z,393.75
2018-04-23T10:56:06.928Z,388.13
2018-04-23T10:57:59.865Z,376.88
2018-04-23T10:58:59.875Z,371.25
2018-04-23T11:00:52.831Z,286.88
2018-04-23T11:01:52.879Z,247.50
2018-04-23T11:03:45.859Z,270.00
2018-04-23T11:04:45.891Z,365.63
2018-04-23T11:06:38.939Z,382.50
2018-04-23T11:07:38.943Z,365.63
2018-04-23T11:09:31.970Z,393.75
2018-04-23T11:10:31.997Z,427.50
2018-04-23T11:12:24.939Z,416.25
2018-04-23T11:13:24.946Z,348.75
2018-04-23T11:15:17.892Z,343.13
2018-04-23T11:17:30.916Z,478.13
2018-04-23T11:18:30.925Z,534.38
2018-04-23T11:20:24.361Z,472.50
2018-04-23T11:21:24.391Z,495.00
2018-04-23T11:23:17.438Z,568.13
2018-04-23T11:24:17.450Z,596.25
2018-04-23T11:26:10.493Z,556.88
2018-04-23T11:27:10.506Z,568.13
2018-04-23T11:29:03.532Z,596.25
2018-04-23T11:30:03.564Z,545.63
2018-04-23T11:31:56.609Z,495.00
2018-04-23T11:32:56.619Z,455.63
2018-04-23T11:34:50.061Z,421.88
2018-04-23T11:35:50.089Z,478.13
2018-04-23T11:37:43.131Z,416.25
2018-04-23T11:38:43.193Z,393.75
2018-04-23T11:40:36.167Z,382.50
2018-04-23T11:41:36.196Z,376.88
2018-04-23T11:43:29.242Z,320.63
2018-04-23T11:44:29.254Z,292.50
2018-04-23T11:46:22.305Z,354.38
2018-04-23T11:47:22.308Z,343.13
2018-04-23T11:49:15.334Z,331.88
2018-04-23T11:50:15.367Z,298.13
2018-04-23T11:52:08.412Z,292.50
2018-04-23T11:53:08.470Z,303.75
2018-04-23T11:55:01.447Z,292.50
2018-04-23T11:56:01.477Z,315.00
2018-04-23T11:57:54.524Z,371.25
2018-04-23T11:58:54.551Z,433.13
2018-04-23T12:00:47.562Z,495.00
2018-04-23T12:01:47.592Z,478.13
2018-04-23T12:03:40.638Z,579.38
2018-04-23T12:04:40.647Z,523.13
2018-04-23T12:06:34.105Z,483.75
2018-04-23T12:07:34.113Z,416.25
2018-04-23T12:09:27.146Z,495.00
2018-04-23T12:10:27.175Z,427.50
2018-04-23T12:12:20.116Z,360.00
2018-04-23T12:13:20.131Z,292.50
2018-04-23T12:15:13.149Z,241.88
2018-04-23T12:16:13.189Z,236.25
2018-04-23T12:18:06.228Z,225.00
2018-04-23T12:19:06.235Z,225.00
2018-04-23T12:20:59.331Z,225.00
2018-04-23T12:21:59.292Z,225.00
2018-04-23T12:23:52.334Z,225.00
2018-04-23T12:24:52.345Z,196.88
2018-04-23T12:26:45.396Z,213.75
2018-04-23T12:27:45.402Z,213.75
2018-04-23T12:29:38.428Z,219.38
2018-04-23T12:30:38.461Z,219.38
2018-04-23T12:32:31.917Z,219.38
2018-04-23T12:33:31.927Z,213.75
2018-04-23T12:35:24.950Z,225.00
2018-04-23T12:36:24.980Z,230.63
2018-04-23T12:38:18.029Z,253.13
2018-04-23T12:39:18.044Z,247.50
2018-04-23T12:41:10.963Z,236.25
2018-04-23T12:42:10.990Z,236.25
2018-04-23T12:44:04.036Z,225.00
2018-04-23T12:45:04.047Z,219.38
2018-04-23T12:46:57.092Z,213.75
2018-04-23T12:47:57.114Z,219.38
2018-04-23T12:49:50.128Z,219.38
2018-04-23T12:50:50.158Z,219.38
2018-04-23T12:52:43.105Z,225.00
2018-04-23T12:53:43.112Z,225.00
2018-04-23T12:55:36.140Z,219.38
2018-04-23T12:56:36.169Z,219.38
2018-04-23T12:58:29.119Z,219.38
2018-04-23T12:59:29.122Z,225.00
2018-04-23T13:01:22.052Z,225.00
2018-04-23T13:02:22.080Z,230.63
2018-04-23T13:04:15.124Z,225.00
2018-04-23T13:05:15.132Z,225.00
2018-04-23T13:07:08.200Z,225.00
2018-04-23T13:08:08.190Z,241.88
2018-04-23T13:10:01.255Z,219.38
2018-04-23T13:11:01.245Z,213.75
2018-04-23T13:12:54.192Z,219.38
2018-04-23T13:13:54.199Z,219.38
2018-04-23T13:15:47.228Z,230.63
2018-04-23T13:16:47.256Z,230.63
2018-04-23T13:18:40.713Z,225.00
2018-04-23T13:19:40.726Z,241.88
2018-04-23T13:21:33.752Z,337.50
2018-04-23T13:22:33.836Z,298.13
2018-04-23T13:24:26.827Z,275.63
2018-04-23T13:25:26.831Z,315.00
2018-04-23T13:27:19.883Z,315.00
2018-04-23T13:28:19.890Z,315.00
2018-04-23T13:30:13.328Z,331.88
2018-04-23T13:31:13.357Z,410.63
2018-04-23T13:33:06.405Z,444.38
2018-04-23T13:34:06.413Z,393.75
2018-04-23T13:35:59.444Z,478.13
2018-04-23T13:36:59.469Z,433.13
2018-04-23T13:38:52.924Z,438.75
2018-04-23T13:39:52.938Z,450.00
2018-04-23T13:41:45.965Z,309.38
2018-04-23T13:42:45.996Z,286.88
2018-04-23T13:44:39.037Z,230.63
2018-04-23T13:45:39.046Z,208.13
2018-04-23T13:47:32.075Z,202.50
2018-04-23T13:48:32.103Z,219.38
2018-04-23T13:50:25.149Z,331.88
2018-04-23T13:51:25.158Z,365.63
2018-04-23T13:53:18.207Z,309.38
2018-04-23T13:54:18.216Z,320.63
2018-04-23T13:56:16.166Z,281.25
2018-04-23T13:57:23.363Z,241.88
2018-04-23T13:59:09.135Z,213.75
2018-04-23T14:00:09.141Z,208.13
2018-04-23T14:02:02.077Z,202.50
2018-04-23T14:03:02.097Z,196.88
2018-04-23T14:04:55.142Z,185.63
2018-04-23T14:05:55.153Z,191.25
2018-04-23T14:07:48.175Z,236.25
2018-04-23T14:08:48.204Z,236.25
2018-04-23T14:10:42.693Z,315.00
2018-04-23T14:11:42.694Z,286.88
2018-04-23T14:13:35.621Z,225.00
2018-04-23T14:14:35.652Z,219.38
2018-04-23T14:16:28.695Z,208.13
2018-04-23T14:17:28.706Z,202.50
2018-04-23T14:19:21.650Z,196.88
2018-04-23T14:20:21.659Z,202.50
2018-04-23T14:22:14.584Z,196.88
2018-04-23T14:23:14.612Z,196.88
2018-04-23T14:25:07.557Z,241.88
2018-04-23T14:26:07.566Z,270.00
2018-04-23T14:28:00.493Z,264.38
2018-04-23T14:29:00.520Z,258.75
2018-04-23T14:30:53.468Z,303.75
2018-04-23T14:31:53.476Z,303.75
2018-04-23T14:33:46.503Z,275.63
2018-04-23T14:34:46.532Z,270.00
2018-04-23T14:36:39.991Z,258.75
2018-04-23T14:37:40.020Z,309.38
2018-04-23T14:39:33.044Z,270.00
2018-04-23T14:40:33.053Z,241.88
2018-04-23T14:42:25.979Z,247.50
2018-04-23T14:43:26.012Z,253.13
2018-04-23T14:45:18.960Z,286.88
2018-04-23T14:46:18.961Z,281.25
2018-04-23T14:48:11.888Z,298.13
2018-04-23T14:49:11.914Z,303.75
2018-04-23T14:51:04.871Z,303.75
2018-04-23T14:52:04.871Z,298.13
2018-04-23T14:53:57.898Z,292.50
2018-04-23T14:54:57.926Z,292.50
2018-04-23T14:56:52.405Z,309.38
2018-04-23T14:57:52.416Z,320.63
2018-04-23T14:59:45.340Z,360.00
2018-04-23T15:00:45.367Z,371.25
2018-04-23T15:02:38.313Z,371.25
2018-04-23T15:03:38.321Z,371.25
2018-04-23T15:05:31.371Z,371.25
2018-04-23T15:06:31.380Z,365.63
2018-04-23T15:08:24.338Z,348.75
2018-04-23T15:09:24.332Z,343.13
2018-04-23T15:11:17.277Z,337.50
2018-04-23T15:12:17.286Z,348.75
2018-04-23T15:14:10.314Z,360.00
2018-04-23T15:15:10.346Z,365.63
2018-04-23T15:17:03.289Z,382.50
2018-04-23T15:18:03.294Z,371.25
2018-04-23T15:19:56.735Z,354.38
2018-04-23T15:20:56.765Z,354.38
2018-04-23T15:22:49.809Z,376.88
2018-04-23T15:23:49.818Z,388.13
2018-04-23T15:25:42.846Z,388.13
2018-04-23T15:26:42.874Z,388.13
2018-04-23T15:28:36.377Z,365.63
2018-04-23T15:29:36.344Z,343.13
2018-04-23T15:31:29.795Z,337.50
2018-04-23T15:32:29.806Z,331.88
2018-04-23T15:34:23.249Z,309.38
2018-04-23T15:35:23.273Z,298.13
2018-04-23T15:37:17.243Z,303.75
2018-04-23T15:38:17.248Z,320.63
2018-04-23T15:40:10.176Z,320.63
2018-04-23T15:41:10.261Z,309.38
2018-04-23T15:43:06.218Z,286.88
2018-04-23T15:44:06.226Z,281.25
2018-04-23T15:45:59.256Z,264.38
2018-04-23T15:46:59.283Z,258.75
2018-04-23T15:48:52.228Z,264.38
2018-04-23T15:49:52.237Z,270.00
2018-04-23T15:51:45.183Z,275.63
2018-04-23T15:52:45.226Z,281.25
2018-04-23T15:54:38.122Z,298.13
2018-04-23T15:55:38.146Z,303.75
2018-04-23T15:57:31.192Z,303.75
2018-04-23T15:58:31.203Z,309.38
2018-04-23T16:00:24.640Z,315.00
2018-04-23T16:01:24.666Z,315.00
2018-04-23T16:03:17.619Z,309.38
2018-04-23T16:04:17.623Z,303.75
2018-04-23T16:06:10.650Z,298.13
2018-04-23T16:07:10.679Z,292.50
2018-04-23T16:09:03.623Z,286.88
2018-04-23T16:10:03.636Z,281.25
2018-04-23T16:11:56.557Z,275.63
2018-04-23T16:12:56.583Z,270.00
2018-04-23T16:14:50.046Z,264.38
2018-04-23T16:15:50.055Z,258.75
2018-04-23T16:17:43.509Z,258.75
2018-04-23T16:18:43.517Z,258.75
2018-04-23T16:20:37.981Z,264.38
2018-04-23T16:21:38.010Z,270.00
2018-04-23T16:23:30.956Z,275.63
2018-04-23T16:24:30.971Z,275.63
2018-04-23T16:26:23.885Z,286.88
2018-04-23T16:27:23.915Z,298.13
2018-04-23T16:29:16.861Z,298.13
2018-04-23T16:30:16.867Z,298.13
2018-04-23T16:32:09.793Z,298.13
2018-04-23T16:33:09.820Z,303.75
2018-04-23T16:35:02.791Z,326.25
2018-04-23T16:36:02.790Z,326.25
2018-04-23T16:37:55.831Z,298.13
2018-04-23T16:38:55.837Z,281.25
2018-04-23T16:40:48.786Z,236.25
2018-04-23T16:41:48.792Z,225.00
2018-04-23T16:43:41.835Z,208.13
2018-04-23T16:44:41.845Z,202.50
2018-04-23T16:46:34.877Z,191.25
2018-04-23T16:47:34.909Z,191.25
2018-04-23T16:49:27.951Z,174.38
2018-04-23T16:50:27.957Z,163.13
2018-04-23T16:52:21.396Z,157.50
2018-04-23T16:53:21.423Z,151.88
2018-04-23T16:55:14.367Z,140.63
2018-04-23T16:56:14.372Z,135.00
2018-04-23T16:58:07.303Z,135.00
2018-04-23T16:59:07.328Z,135.00
2018-04-23T17:01:01.814Z,129.38
2018-04-23T17:02:01.821Z,129.38
2018-04-23T17:03:55.277Z,129.38
2018-04-23T17:04:55.282Z,123.75
2018-04-23T17:06:48.198Z,123.75
2018-04-23T17:07:48.232Z,123.75
2018-04-23T17:09:41.698Z,118.13
2018-04-23T17:10:41.709Z,118.13
2018-04-23T17:12:35.144Z,112.50
2018-04-23T17:13:35.169Z,112.50
2018-04-23T17:15:28.114Z,112.50
2018-04-23T17:16:28.122Z,112.50
2018-04-23T17:18:21.053Z,106.88
2018-04-23T17:19:21.079Z,106.88
2018-04-23T17:21:14.535Z,101.25
2018-04-23T17:22:14.545Z,101.25
2018-04-23T17:24:07.459Z,101.25
2018-04-23T17:25:07.488Z,101.25
2018-04-23T17:27:00.471Z,101.25
2018-04-23T17:28:00.451Z,101.25
2018-04-23T17:29:53.396Z,101.25
2018-04-23T17:30:53.403Z,101.25
2018-04-23T17:32:46.330Z,101.25
2018-04-23T17:33:46.357Z,95.63
2018-04-23T17:35:39.305Z,95.63
2018-04-23T17:36:39.317Z,90.00
2018-04-23T17:38:32.238Z,84.38
2018-04-23T17:39:32.262Z,84.38
2018-04-23T17:41:25.212Z,84.38
2018-04-23T17:42:25.219Z,78.75
2018-04-23T17:44:18.147Z,78.75
2018-04-23T17:45:18.174Z,78.75
2018-04-23T17:47:11.122Z,73.13
2018-04-23T17:48:11.128Z,73.13
2018-04-23T17:50:04.091Z,73.13
2018-04-23T17:51:04.085Z,67.50
2018-04-23T17:52:57.010Z,67.50
2018-04-23T17:53:57.034Z,61.88
2018-04-23T17:55:49.982Z,61.88
2018-04-23T17:56:49.993Z,61.88
2018-04-23T17:58:42.923Z,56.25
2018-04-23T17:59:42.941Z,56.25
2018-04-23T18:01:35.890Z,50.63
2018-04-23T18:02:35.895Z,50.63
2018-04-23T18:04:28.824Z,50.63
2018-04-23T18:05:28.853Z,45.00
2018-04-23T18:07:21.796Z,39.38
2018-04-23T18:08:21.802Z,39.38
2018-04-23T18:10:14.735Z,39.38
2018-04-23T18:11:14.763Z,33.75
2018-04-23T18:13:07.711Z,33.75
2018-04-23T18:14:07.714Z,33.75
2018-04-23T18:16:00.657Z,28.13
2018-04-23T18:17:00.664Z,28.13
2018-04-23T18:18:53.592Z,22.50